sensor_id;sensor_type;location;lat;lon;timestamp;P1;durP1;ratioP1;P2;durP2;ratioP2
30874;SDS011;17581;43.222;27.924;2022-12-18T00:01:20;9.70;;;5.65;;
30874;SDS011;17581;43.222;27.924;2022-12-18T00:03:46;8.48;;;5.15;;
30874;SDS011;17581;43.222;27.924;2022-12-18T00:06:12;24.90;;;5.68;;
30874;SDS011;17581;43.222;27.924;2022-12-18T00:08:38;10.30;;;5.60;;
30874;SDS011;17581;43.222;27.924;2022-12-18T00:11:05;11.38;;;5.45;;
30874;SDS011;17581;43.222;27.924;2022-12-18T00:13:33;9.27;;;5.93;;
30874;SDS011;17581;43.222;27.924;2022-12-18T00:16:05;10.07;;;6.03;;
30874;SDS011;17581;43.222;27.924;2022-12-18T00:18:33;10.02;;;5.70;;
30874;SDS011;17581;43.222;27.924;2022-12-18T00:20:59;8.98;;;5.45;;
30874;SDS011;17581;43.222;27.924;2022-12-18T00:23:28;12.80;;;5.13;;
30874;SDS011;17581;43.222;27.924;2022-12-18T00:25:53;9.32;;;5.35;;
30874;SDS011;17581;43.222;27.924;2022-12-18T00:28:19;8.40;;;4.80;;
30874;SDS011;17581;43.222;27.924;2022-12-18T00:30:44;7.03;;;4.97;;
30874;SDS011;17581;43.222;27.924;2022-12-18T00:33:10;8.45;;;4.72;;
30874;SDS011;17581;43.222;27.924;2022-12-18T00:35:35;5.88;;;3.95;;
30874;SDS011;17581;43.222;27.924;2022-12-18T00:38:00;7.97;;;4.13;;
30874;SDS011;17581;43.222;27.924;2022-12-18T00:40:26;6.53;;;4.20;;
30874;SDS011;17581;43.222;27.924;2022-12-18T00:42:51;7.18;;;4.60;;
30874;SDS011;17581;43.222;27.924;2022-12-18T00:45:27;7.13;;;4.70;;
30874;SDS011;17581;43.222;27.924;2022-12-18T00:47:55;6.28;;;4.50;;
30874;SDS011;17581;43.222;27.924;2022-12-18T00:50:21;5.70;;;4.32;;
30874;SDS011;17581;43.222;27.924;2022-12-18T00:52:47;8.02;;;3.80;;
30874;SDS011;17581;43.222;27.924;2022-12-18T00:55:13;6.57;;;4.35;;
30874;SDS011;17581;43.222;27.924;2022-12-18T00:57:39;6.85;;;4.90;;
30874;SDS011;17581;43.222;27.924;2022-12-18T01:00:05;5.22;;;4.20;;
30874;SDS011;17581;43.222;27.924;2022-12-18T01:02:33;7.22;;;4.65;;
30874;SDS011;17581;43.222;27.924;2022-12-18T01:04:59;4.97;;;4.18;;
30874;SDS011;17581;43.222;27.924;2022-12-18T01:07:24;5.82;;;4.53;;
30874;SDS011;17581;43.222;27.924;2022-12-18T01:09:49;10.02;;;4.70;;
30874;SDS011;17581;43.222;27.924;2022-12-18T01:12:15;8.50;;;4.68;;
30874;SDS011;17581;43.222;27.924;2022-12-18T01:14:40;7.53;;;4.00;;
30874;SDS011;17581;43.222;27.924;2022-12-18T01:17:06;5.50;;;4.22;;
30874;SDS011;17581;43.222;27.924;2022-12-18T01:19:31;6.68;;;4.50;;
30874;SDS011;17581;43.222;27.924;2022-12-18T01:21:57;6.30;;;4.15;;
30874;SDS011;17581;43.222;27.924;2022-12-18T01:24:23;6.15;;;3.90;;
30874;SDS011;17581;43.222;27.924;2022-12-18T01:26:49;15.50;;;4.78;;
30874;SDS011;17581;43.222;27.924;2022-12-18T01:29:14;12.65;;;4.25;;
30874;SDS011;17581;43.222;27.924;2022-12-18T01:31:39;9.10;;;4.20;;
30874;SDS011;17581;43.222;27.924;2022-12-18T01:34:05;10.38;;;4.85;;
30874;SDS011;17581;43.222;27.924;2022-12-18T01:36:34;10.15;;;4.35;;
30874;SDS011;17581;43.222;27.924;2022-12-18T01:39:03;6.40;;;4.30;;
30874;SDS011;17581;43.222;27.924;2022-12-18T01:41:33;6.78;;;4.60;;
30874;SDS011;17581;43.222;27.924;2022-12-18T01:47:45;4.65;;;3.35;;
30874;SDS011;17581;43.222;27.924;2022-12-18T01:52:53;7.45;;;4.15;;
30874;SDS011;17581;43.222;27.924;2022-12-18T01:55:23;7.20;;;4.40;;
30874;SDS011;17581;43.222;27.924;2022-12-18T01:57:52;4.68;;;3.35;;
30874;SDS011;17581;43.222;27.924;2022-12-18T02:00:20;7.30;;;3.75;;
30874;SDS011;17581;43.222;27.924;2022-12-18T02:02:47;6.38;;;3.72;;
30874;SDS011;17581;43.222;27.924;2022-12-18T02:08:22;5.03;;;3.72;;
30874;SDS011;17581;43.222;27.924;2022-12-18T02:18:58;8.50;;;3.53;;
30874;SDS011;17581;43.222;27.924;2022-12-18T02:27:00;6.00;;;3.75;;
30874;SDS011;17581;43.222;27.924;2022-12-18T02:32:13;5.78;;;3.95;;
30874;SDS011;17581;43.222;27.924;2022-12-18T02:34:41;6.78;;;4.28;;
30874;SDS011;17581;43.222;27.924;2022-12-18T02:37:10;8.73;;;4.57;;
30874;SDS011;17581;43.222;27.924;2022-12-18T02:39:40;12.60;;;5.00;;
30874;SDS011;17581;43.222;27.924;2022-12-18T02:42:08;6.75;;;3.58;;
30874;SDS011;17581;43.222;27.924;2022-12-18T02:44:34;5.20;;;3.85;;
30874;SDS011;17581;43.222;27.924;2022-12-18T02:47:08;6.85;;;4.43;;
30874;SDS011;17581;43.222;27.924;2022-12-18T03:03:03;5.28;;;3.28;;
30874;SDS011;17581;43.222;27.924;2022-12-18T03:05:43;7.28;;;4.30;;
30874;SDS011;17581;43.222;27.924;2022-12-18T03:08:16;5.40;;;3.83;;
30874;SDS011;17581;43.222;27.924;2022-12-18T03:10:48;9.27;;;4.38;;
30874;SDS011;17581;43.222;27.924;2022-12-18T03:16:12;12.50;;;4.47;;
30874;SDS011;17581;43.222;27.924;2022-12-18T03:18:45;8.40;;;4.13;;
30874;SDS011;17581;43.222;27.924;2022-12-18T03:21:14;5.22;;;4.00;;
30874;SDS011;17581;43.222;27.924;2022-12-18T03:23:45;6.28;;;4.05;;
30874;SDS011;17581;43.222;27.924;2022-12-18T03:26:15;10.98;;;4.60;;
30874;SDS011;17581;43.222;27.924;2022-12-18T03:28:54;5.55;;;4.10;;
30874;SDS011;17581;43.222;27.924;2022-12-18T03:31:24;5.53;;;4.35;;
30874;SDS011;17581;43.222;27.924;2022-12-18T03:33:52;5.00;;;3.55;;
30874;SDS011;17581;43.222;27.924;2022-12-18T03:36:18;10.15;;;4.40;;
30874;SDS011;17581;43.222;27.924;2022-12-18T03:38:43;6.22;;;4.28;;
30874;SDS011;17581;43.222;27.924;2022-12-18T03:41:16;5.80;;;4.43;;
30874;SDS011;17581;43.222;27.924;2022-12-18T03:43:58;9.75;;;3.92;;
30874;SDS011;17581;43.222;27.924;2022-12-18T03:46:41;7.13;;;4.10;;
30874;SDS011;17581;43.222;27.924;2022-12-18T03:51:54;6.68;;;3.88;;
30874;SDS011;17581;43.222;27.924;2022-12-18T03:54:26;5.03;;;4.22;;
30874;SDS011;17581;43.222;27.924;2022-12-18T03:56:56;6.20;;;3.78;;
30874;SDS011;17581;43.222;27.924;2022-12-18T04:01:52;5.30;;;3.58;;
30874;SDS011;17581;43.222;27.924;2022-12-18T04:04:19;6.03;;;3.50;;
30874;SDS011;17581;43.222;27.924;2022-12-18T04:06:46;7.88;;;4.90;;
30874;SDS011;17581;43.222;27.924;2022-12-18T04:09:14;7.95;;;4.68;;
30874;SDS011;17581;43.222;27.924;2022-12-18T04:11:40;10.77;;;4.50;;
30874;SDS011;17581;43.222;27.924;2022-12-18T04:14:08;6.57;;;4.85;;
30874;SDS011;17581;43.222;27.924;2022-12-18T04:16:34;6.80;;;4.82;;
30874;SDS011;17581;43.222;27.924;2022-12-18T04:19:00;8.00;;;4.68;;
30874;SDS011;17581;43.222;27.924;2022-12-18T04:21:25;8.02;;;4.78;;
30874;SDS011;17581;43.222;27.924;2022-12-18T04:23:50;6.78;;;4.65;;
30874;SDS011;17581;43.222;27.924;2022-12-18T04:26:16;5.65;;;4.72;;
30874;SDS011;17581;43.222;27.924;2022-12-18T04:28:41;8.15;;;5.25;;
30874;SDS011;17581;43.222;27.924;2022-12-18T04:31:07;11.20;;;5.93;;
30874;SDS011;17581;43.222;27.924;2022-12-18T04:33:33;8.73;;;5.32;;
30874;SDS011;17581;43.222;27.924;2022-12-18T04:35:58;8.43;;;6.32;;
30874;SDS011;17581;43.222;27.924;2022-12-18T04:38:24;9.02;;;6.28;;
30874;SDS011;17581;43.222;27.924;2022-12-18T04:40:49;9.48;;;6.10;;
30874;SDS011;17581;43.222;27.924;2022-12-18T04:43:14;10.48;;;5.85;;
30874;SDS011;17581;43.222;27.924;2022-12-18T04:45:40;13.10;;;7.78;;
30874;SDS011;17581;43.222;27.924;2022-12-18T04:48:05;13.32;;;7.50;;
30874;SDS011;17581;43.222;27.924;2022-12-18T04:50:31;13.05;;;8.10;;
30874;SDS011;17581;43.222;27.924;2022-12-18T04:52:57;13.20;;;8.48;;
30874;SDS011;17581;43.222;27.924;2022-12-18T04:55:25;11.85;;;8.02;;
30874;SDS011;17581;43.222;27.924;2022-12-18T04:57:51;13.20;;;8.68;;
30874;SDS011;17581;43.222;27.924;2022-12-18T05:00:17;15.50;;;9.98;;
30874;SDS011;17581;43.222;27.924;2022-12-18T05:02:43;15.82;;;9.48;;
30874;SDS011;17581;43.222;27.924;2022-12-18T05:05:08;18.63;;;11.23;;
30874;SDS011;17581;43.222;27.924;2022-12-18T05:07:34;22.38;;;9.25;;
30874;SDS011;17581;43.222;27.924;2022-12-18T05:09:59;16.92;;;9.00;;
30874;SDS011;17581;43.222;27.924;2022-12-18T05:12:24;23.02;;;9.13;;
30874;SDS011;17581;43.222;27.924;2022-12-18T05:14:50;12.25;;;8.65;;
30874;SDS011;17581;43.222;27.924;2022-12-18T05:17:16;13.80;;;8.27;;
30874;SDS011;17581;43.222;27.924;2022-12-18T05:19:41;17.10;;;9.35;;
30874;SDS011;17581;43.222;27.924;2022-12-18T05:22:06;15.15;;;9.20;;
30874;SDS011;17581;43.222;27.924;2022-12-18T05:24:32;15.02;;;9.55;;
30874;SDS011;17581;43.222;27.924;2022-12-18T05:26:57;19.30;;;10.50;;
30874;SDS011;17581;43.222;27.924;2022-12-18T05:29:23;17.40;;;11.50;;
30874;SDS011;17581;43.222;27.924;2022-12-18T05:31:48;19.48;;;11.50;;
30874;SDS011;17581;43.222;27.924;2022-12-18T05:34:14;19.90;;;12.65;;
30874;SDS011;17581;43.222;27.924;2022-12-18T05:36:39;19.08;;;12.50;;
30874;SDS011;17581;43.222;27.924;2022-12-18T05:39:05;18.42;;;11.45;;
30874;SDS011;17581;43.222;27.924;2022-12-18T05:41:31;22.08;;;12.77;;
30874;SDS011;17581;43.222;27.924;2022-12-18T05:43:56;26.33;;;12.43;;
30874;SDS011;17581;43.222;27.924;2022-12-18T05:46:22;25.20;;;12.73;;
30874;SDS011;17581;43.222;27.924;2022-12-18T05:48:49;24.33;;;14.35;;
30874;SDS011;17581;43.222;27.924;2022-12-18T05:51:16;25.25;;;14.57;;
30874;SDS011;17581;43.222;27.924;2022-12-18T05:53:43;25.00;;;14.35;;
30874;SDS011;17581;43.222;27.924;2022-12-18T05:56:16;28.02;;;14.57;;
30874;SDS011;17581;43.222;27.924;2022-12-18T05:58:43;28.50;;;16.20;;
30874;SDS011;17581;43.222;27.924;2022-12-18T06:01:11;33.53;;;17.08;;
30874;SDS011;17581;43.222;27.924;2022-12-18T06:03:39;25.90;;;16.05;;
30874;SDS011;17581;43.222;27.924;2022-12-18T06:06:12;27.33;;;16.60;;
30874;SDS011;17581;43.222;27.924;2022-12-18T06:08:42;27.15;;;16.35;;
30874;SDS011;17581;43.222;27.924;2022-12-18T06:11:08;33.60;;;16.42;;
30874;SDS011;17581;43.222;27.924;2022-12-18T06:13:33;32.97;;;17.77;;
30874;SDS011;17581;43.222;27.924;2022-12-18T06:16:01;28.83;;;16.58;;
30874;SDS011;17581;43.222;27.924;2022-12-18T06:18:27;32.47;;;18.30;;
30874;SDS011;17581;43.222;27.924;2022-12-18T06:20:56;31.52;;;18.35;;
30874;SDS011;17581;43.222;27.924;2022-12-18T06:23:22;30.90;;;18.63;;
30874;SDS011;17581;43.222;27.924;2022-12-18T06:25:47;28.50;;;17.38;;
30874;SDS011;17581;43.222;27.924;2022-12-18T06:28:13;29.13;;;16.63;;
30874;SDS011;17581;43.222;27.924;2022-12-18T06:30:38;28.58;;;17.23;;
30874;SDS011;17581;43.222;27.924;2022-12-18T06:33:04;32.85;;;18.13;;
30874;SDS011;17581;43.222;27.924;2022-12-18T06:35:29;40.20;;;18.60;;
30874;SDS011;17581;43.222;27.924;2022-12-18T06:37:56;34.88;;;17.67;;
30874;SDS011;17581;43.222;27.924;2022-12-18T06:40:21;29.98;;;18.15;;
30874;SDS011;17581;43.222;27.924;2022-12-18T06:42:47;37.08;;;18.98;;
30874;SDS011;17581;43.222;27.924;2022-12-18T06:45:15;35.53;;;19.70;;
30874;SDS011;17581;43.222;27.924;2022-12-18T06:47:41;39.35;;;20.80;;
30874;SDS011;17581;43.222;27.924;2022-12-18T06:50:06;38.00;;;22.13;;
30874;SDS011;17581;43.222;27.924;2022-12-18T06:52:32;33.53;;;19.73;;
30874;SDS011;17581;43.222;27.924;2022-12-18T06:54:58;36.28;;;21.73;;
30874;SDS011;17581;43.222;27.924;2022-12-18T06:57:24;36.58;;;21.60;;
30874;SDS011;17581;43.222;27.924;2022-12-18T06:59:49;42.15;;;21.70;;
30874;SDS011;17581;43.222;27.924;2022-12-18T07:02:15;37.58;;;21.90;;
30874;SDS011;17581;43.222;27.924;2022-12-18T07:04:40;37.95;;;22.27;;
30874;SDS011;17581;43.222;27.924;2022-12-18T07:07:06;43.72;;;24.25;;
30874;SDS011;17581;43.222;27.924;2022-12-18T07:09:31;40.35;;;22.23;;
30874;SDS011;17581;43.222;27.924;2022-12-18T07:11:57;47.13;;;26.02;;
30874;SDS011;17581;43.222;27.924;2022-12-18T07:14:22;44.45;;;24.63;;
30874;SDS011;17581;43.222;27.924;2022-12-18T07:16:47;49.13;;;24.25;;
30874;SDS011;17581;43.222;27.924;2022-12-18T07:19:13;45.28;;;24.42;;
30874;SDS011;17581;43.222;27.924;2022-12-18T07:21:38;47.70;;;25.52;;
30874;SDS011;17581;43.222;27.924;2022-12-18T07:24:04;42.47;;;24.23;;
30874;SDS011;17581;43.222;27.924;2022-12-18T07:26:30;46.35;;;24.42;;
30874;SDS011;17581;43.222;27.924;2022-12-18T07:28:55;46.95;;;23.55;;
30874;SDS011;17581;43.222;27.924;2022-12-18T07:31:22;47.78;;;26.17;;
30874;SDS011;17581;43.222;27.924;2022-12-18T07:33:48;48.85;;;24.85;;
30874;SDS011;17581;43.222;27.924;2022-12-18T07:36:14;60.75;;;27.88;;
30874;SDS011;17581;43.222;27.924;2022-12-18T07:38:40;56.50;;;28.13;;
30874;SDS011;17581;43.222;27.924;2022-12-18T07:41:10;43.67;;;24.67;;
30874;SDS011;17581;43.222;27.924;2022-12-18T07:43:37;53.30;;;26.45;;
30874;SDS011;17581;43.222;27.924;2022-12-18T07:46:04;45.22;;;24.60;;
30874;SDS011;17581;43.222;27.924;2022-12-18T07:48:29;64.57;;;27.13;;
30874;SDS011;17581;43.222;27.924;2022-12-18T07:50:59;50.55;;;26.17;;
30874;SDS011;17581;43.222;27.924;2022-12-18T07:53:25;47.30;;;27.02;;
30874;SDS011;17581;43.222;27.924;2022-12-18T07:56:00;47.38;;;25.88;;
30874;SDS011;17581;43.222;27.924;2022-12-18T07:58:28;57.95;;;26.52;;
30874;SDS011;17581;43.222;27.924;2022-12-18T08:00:54;46.75;;;25.52;;
30874;SDS011;17581;43.222;27.924;2022-12-18T08:03:26;46.63;;;25.75;;
30874;SDS011;17581;43.222;27.924;2022-12-18T08:05:52;44.28;;;25.77;;
30874;SDS011;17581;43.222;27.924;2022-12-18T08:08:17;48.65;;;26.58;;
30874;SDS011;17581;43.222;27.924;2022-12-18T08:10:43;57.15;;;28.20;;
30874;SDS011;17581;43.222;27.924;2022-12-18T08:13:08;49.28;;;28.25;;
30874;SDS011;17581;43.222;27.924;2022-12-18T08:15:33;41.15;;;25.13;;
30874;SDS011;17581;43.222;27.924;2022-12-18T08:17:59;57.83;;;30.08;;
30874;SDS011;17581;43.222;27.924;2022-12-18T08:20:24;49.40;;;29.05;;
30874;SDS011;17581;43.222;27.924;2022-12-18T08:22:49;47.35;;;27.60;;
30874;SDS011;17581;43.222;27.924;2022-12-18T08:25:15;81.65;;;41.72;;
30874;SDS011;17581;43.222;27.924;2022-12-18T08:27:40;71.80;;;34.30;;
30874;SDS011;17581;43.222;27.924;2022-12-18T08:30:06;50.72;;;28.17;;
30874;SDS011;17581;43.222;27.924;2022-12-18T08:32:32;52.05;;;26.23;;
30874;SDS011;17581;43.222;27.924;2022-12-18T08:34:58;48.95;;;28.27;;
30874;SDS011;17581;43.222;27.924;2022-12-18T08:37:23;46.95;;;26.88;;
30874;SDS011;17581;43.222;27.924;2022-12-18T08:39:49;48.88;;;26.88;;
30874;SDS011;17581;43.222;27.924;2022-12-18T08:42:14;45.25;;;27.02;;
30874;SDS011;17581;43.222;27.924;2022-12-18T08:44:59;62.72;;;29.50;;
30874;SDS011;17581;43.222;27.924;2022-12-18T08:47:24;51.00;;;28.75;;
30874;SDS011;17581;43.222;27.924;2022-12-18T08:49:51;45.92;;;29.02;;
30874;SDS011;17581;43.222;27.924;2022-12-18T08:52:16;56.70;;;29.27;;
30874;SDS011;17581;43.222;27.924;2022-12-18T08:54:41;65.28;;;31.90;;
30874;SDS011;17581;43.222;27.924;2022-12-18T08:57:07;49.85;;;28.02;;
30874;SDS011;17581;43.222;27.924;2022-12-18T08:59:32;51.63;;;28.42;;
30874;SDS011;17581;43.222;27.924;2022-12-18T09:01:58;62.15;;;30.30;;
30874;SDS011;17581;43.222;27.924;2022-12-18T09:04:23;51.42;;;27.88;;
30874;SDS011;17581;43.222;27.924;2022-12-18T09:06:49;49.58;;;27.05;;
30874;SDS011;17581;43.222;27.924;2022-12-18T09:09:14;54.20;;;27.02;;
30874;SDS011;17581;43.222;27.924;2022-12-18T09:11:40;50.70;;;28.23;;
30874;SDS011;17581;43.222;27.924;2022-12-18T09:14:05;52.35;;;28.10;;
30874;SDS011;17581;43.222;27.924;2022-12-18T09:16:31;55.28;;;28.38;;
30874;SDS011;17581;43.222;27.924;2022-12-18T09:18:59;46.25;;;27.65;;
30874;SDS011;17581;43.222;27.924;2022-12-18T09:21:27;57.75;;;29.98;;
30874;SDS011;17581;43.222;27.924;2022-12-18T09:23:55;57.55;;;29.52;;
30874;SDS011;17581;43.222;27.924;2022-12-18T09:26:21;87.72;;;46.78;;
30874;SDS011;17581;43.222;27.924;2022-12-18T09:28:48;59.80;;;32.28;;
30874;SDS011;17581;43.222;27.924;2022-12-18T09:31:13;52.15;;;28.83;;
30874;SDS011;17581;43.222;27.924;2022-12-18T09:33:39;60.95;;;29.85;;
30874;SDS011;17581;43.222;27.924;2022-12-18T09:36:05;60.58;;;31.17;;
30874;SDS011;17581;43.222;27.924;2022-12-18T09:38:33;61.83;;;32.55;;
30874;SDS011;17581;43.222;27.924;2022-12-18T09:41:00;71.28;;;33.22;;
30874;SDS011;17581;43.222;27.924;2022-12-18T09:43:34;63.78;;;30.45;;
30874;SDS011;17581;43.222;27.924;2022-12-18T09:46:06;62.55;;;30.30;;
30874;SDS011;17581;43.222;27.924;2022-12-18T09:48:40;72.32;;;29.55;;
30874;SDS011;17581;43.222;27.924;2022-12-18T09:51:11;62.22;;;29.27;;
30874;SDS011;17581;43.222;27.924;2022-12-18T09:53:39;54.15;;;29.50;;
30874;SDS011;17581;43.222;27.924;2022-12-18T09:56:10;52.63;;;28.42;;
30874;SDS011;17581;43.222;27.924;2022-12-18T09:58:41;58.25;;;31.08;;
30874;SDS011;17581;43.222;27.924;2022-12-18T10:01:14;58.35;;;30.95;;
30874;SDS011;17581;43.222;27.924;2022-12-18T10:03:43;56.50;;;30.65;;
30874;SDS011;17581;43.222;27.924;2022-12-18T10:11:49;53.38;;;31.63;;
30874;SDS011;17581;43.222;27.924;2022-12-18T10:17:33;53.30;;;31.23;;
30874;SDS011;17581;43.222;27.924;2022-12-18T10:28:25;57.40;;;32.08;;
30874;SDS011;17581;43.222;27.924;2022-12-18T10:30:52;53.00;;;29.17;;
30874;SDS011;17581;43.222;27.924;2022-12-18T10:33:18;75.90;;;30.58;;
30874;SDS011;17581;43.222;27.924;2022-12-18T10:35:46;53.72;;;30.13;;
30874;SDS011;17581;43.222;27.924;2022-12-18T10:43:15;51.67;;;28.02;;
30874;SDS011;17581;43.222;27.924;2022-12-18T10:45:57;51.72;;;29.30;;
30874;SDS011;17581;43.222;27.924;2022-12-18T10:54:02;59.42;;;30.02;;
30874;SDS011;17581;43.222;27.924;2022-12-18T10:56:31;63.50;;;30.23;;
30874;SDS011;17581;43.222;27.924;2022-12-18T10:58:59;57.05;;;31.23;;
30874;SDS011;17581;43.222;27.924;2022-12-18T11:01:27;67.40;;;33.17;;
30874;SDS011;17581;43.222;27.924;2022-12-18T11:06:24;61.90;;;31.45;;
30874;SDS011;17581;43.222;27.924;2022-12-18T11:09:25;55.83;;;29.25;;
30874;SDS011;17581;43.222;27.924;2022-12-18T11:11:50;58.92;;;31.10;;
30874;SDS011;17581;43.222;27.924;2022-12-18T11:17:33;64.88;;;30.75;;
30874;SDS011;17581;43.222;27.924;2022-12-18T11:20:01;56.53;;;32.67;;
30874;SDS011;17581;43.222;27.924;2022-12-18T11:22:32;59.55;;;32.92;;
30874;SDS011;17581;43.222;27.924;2022-12-18T11:27:31;62.70;;;32.75;;
30874;SDS011;17581;43.222;27.924;2022-12-18T11:30:08;61.33;;;32.42;;
30874;SDS011;17581;43.222;27.924;2022-12-18T11:32:42;75.53;;;34.15;;
30874;SDS011;17581;43.222;27.924;2022-12-18T11:35:32;65.13;;;34.65;;
30874;SDS011;17581;43.222;27.924;2022-12-18T11:38:02;88.63;;;36.90;;
30874;SDS011;17581;43.222;27.924;2022-12-18T11:40:36;63.67;;;35.15;;
30874;SDS011;17581;43.222;27.924;2022-12-18T11:45:54;68.60;;;34.67;;
30874;SDS011;17581;43.222;27.924;2022-12-18T11:48:27;64.10;;;34.58;;
30874;SDS011;17581;43.222;27.924;2022-12-18T11:50:58;61.05;;;33.45;;
30874;SDS011;17581;43.222;27.924;2022-12-18T11:53:26;79.63;;;35.25;;
30874;SDS011;17581;43.222;27.924;2022-12-18T11:58:54;69.47;;;36.20;;
30874;SDS011;17581;43.222;27.924;2022-12-18T12:11:58;61.80;;;28.63;;
30874;SDS011;17581;43.222;27.924;2022-12-18T12:23:45;40.72;;;21.80;;
30874;SDS011;17581;43.222;27.924;2022-12-18T12:26:38;45.53;;;22.58;;
30874;SDS011;17581;43.222;27.924;2022-12-18T12:34:34;46.80;;;20.20;;
30874;SDS011;17581;43.222;27.924;2022-12-18T12:39:40;38.70;;;19.90;;
30874;SDS011;17581;43.222;27.924;2022-12-18T12:42:12;29.20;;;15.38;;
30874;SDS011;17581;43.222;27.924;2022-12-18T12:48:31;22.48;;;12.48;;
30874;SDS011;17581;43.222;27.924;2022-12-18T12:51:17;15.73;;;10.40;;
30874;SDS011;17581;43.222;27.924;2022-12-18T12:53:45;17.48;;;10.55;;
30874;SDS011;17581;43.222;27.924;2022-12-18T12:56:12;16.77;;;9.05;;
30874;SDS011;17581;43.222;27.924;2022-12-18T12:58:43;29.52;;;10.77;;
30874;SDS011;17581;43.222;27.924;2022-12-18T13:01:25;24.25;;;12.77;;
30874;SDS011;17581;43.222;27.924;2022-12-18T13:07:00;17.75;;;9.95;;
30874;SDS011;17581;43.222;27.924;2022-12-18T13:10:12;27.30;;;10.98;;
30874;SDS011;17581;43.222;27.924;2022-12-18T13:13:00;17.38;;;10.25;;
30874;SDS011;17581;43.222;27.924;2022-12-18T13:15:31;16.40;;;9.43;;
30874;SDS011;17581;43.222;27.924;2022-12-18T13:18:05;15.40;;;10.10;;
30874;SDS011;17581;43.222;27.924;2022-12-18T13:23:01;21.67;;;10.07;;
30874;SDS011;17581;43.222;27.924;2022-12-18T13:25:53;25.88;;;10.27;;
30874;SDS011;17581;43.222;27.924;2022-12-18T13:36:44;21.75;;;11.32;;
30874;SDS011;17581;43.222;27.924;2022-12-18T13:39:31;23.10;;;11.50;;
30874;SDS011;17581;43.222;27.924;2022-12-18T13:44:36;29.73;;;12.27;;
30874;SDS011;17581;43.222;27.924;2022-12-18T13:47:05;27.75;;;11.63;;
30874;SDS011;17581;43.222;27.924;2022-12-18T13:49:53;22.05;;;10.77;;
30874;SDS011;17581;43.222;27.924;2022-12-18T13:52:24;38.28;;;11.20;;
30874;SDS011;17581;43.222;27.924;2022-12-18T13:54:55;26.45;;;12.48;;
30874;SDS011;17581;43.222;27.924;2022-12-18T13:59:59;22.23;;;12.13;;
30874;SDS011;17581;43.222;27.924;2022-12-18T14:02:49;28.92;;;12.95;;
30874;SDS011;17581;43.222;27.924;2022-12-18T14:05:25;32.38;;;13.68;;
30874;SDS011;17581;43.222;27.924;2022-12-18T14:07:51;28.25;;;12.20;;
30874;SDS011;17581;43.222;27.924;2022-12-18T14:10:18;20.50;;;11.68;;
30874;SDS011;17581;43.222;27.924;2022-12-18T14:12:45;28.95;;;11.95;;
30874;SDS011;17581;43.222;27.924;2022-12-18T14:18:01;27.20;;;11.85;;
30874;SDS011;17581;43.222;27.924;2022-12-18T14:20:29;26.60;;;12.60;;
30874;SDS011;17581;43.222;27.924;2022-12-18T14:22:57;24.23;;;11.60;;
30874;SDS011;17581;43.222;27.924;2022-12-18T14:25:29;20.42;;;10.80;;
30874;SDS011;17581;43.222;27.924;2022-12-18T14:35:30;33.55;;;13.25;;
30874;SDS011;17581;43.222;27.924;2022-12-18T14:38:10;26.58;;;13.55;;
30874;SDS011;17581;43.222;27.924;2022-12-18T14:40:46;21.77;;;13.15;;
30874;SDS011;17581;43.222;27.924;2022-12-18T14:43:11;38.05;;;15.18;;
30874;SDS011;17581;43.222;27.924;2022-12-18T14:45:41;23.83;;;13.90;;
30874;SDS011;17581;43.222;27.924;2022-12-18T14:50:42;25.90;;;13.65;;
30874;SDS011;17581;43.222;27.924;2022-12-18T14:53:22;21.60;;;12.45;;
30874;SDS011;17581;43.222;27.924;2022-12-18T14:55:57;44.78;;;14.65;;
30874;SDS011;17581;43.222;27.924;2022-12-18T14:58:23;30.02;;;12.73;;
30874;SDS011;17581;43.222;27.924;2022-12-18T15:00:48;28.02;;;13.07;;
30874;SDS011;17581;43.222;27.924;2022-12-18T15:03:17;24.67;;;13.48;;
30874;SDS011;17581;43.222;27.924;2022-12-18T15:05:45;32.20;;;16.58;;
30874;SDS011;17581;43.222;27.924;2022-12-18T15:08:26;31.27;;;15.32;;
30874;SDS011;17581;43.222;27.924;2022-12-18T15:11:00;34.00;;;14.48;;
30874;SDS011;17581;43.222;27.924;2022-12-18T15:13:26;29.15;;;15.10;;
30874;SDS011;17581;43.222;27.924;2022-12-18T15:15:52;39.90;;;16.80;;
30874;SDS011;17581;43.222;27.924;2022-12-18T15:18:20;53.45;;;20.00;;
30874;SDS011;17581;43.222;27.924;2022-12-18T15:25:55;33.20;;;15.82;;
30874;SDS011;17581;43.222;27.924;2022-12-18T15:28:37;33.78;;;15.15;;
30874;SDS011;17581;43.222;27.924;2022-12-18T15:33:35;34.35;;;15.52;;
30874;SDS011;17581;43.222;27.924;2022-12-18T15:36:04;36.80;;;15.77;;
30874;SDS011;17581;43.222;27.924;2022-12-18T15:38:33;34.78;;;15.63;;
30874;SDS011;17581;43.222;27.924;2022-12-18T15:40:59;31.50;;;16.67;;
30874;SDS011;17581;43.222;27.924;2022-12-18T15:43:25;32.15;;;17.98;;
30874;SDS011;17581;43.222;27.924;2022-12-18T15:46:05;31.73;;;17.10;;
30874;SDS011;17581;43.222;27.924;2022-12-18T15:48:37;27.02;;;15.90;;
30874;SDS011;17581;43.222;27.924;2022-12-18T15:51:07;27.30;;;15.02;;
30874;SDS011;17581;43.222;27.924;2022-12-18T15:53:38;36.92;;;16.98;;
30874;SDS011;17581;43.222;27.924;2022-12-18T15:56:04;38.00;;;17.33;;
30874;SDS011;17581;43.222;27.924;2022-12-18T15:58:52;29.95;;;16.88;;
30874;SDS011;17581;43.222;27.924;2022-12-18T16:01:18;51.35;;;18.15;;
30874;SDS011;17581;43.222;27.924;2022-12-18T16:03:45;23.50;;;15.18;;
30874;SDS011;17581;43.222;27.924;2022-12-18T16:06:11;24.05;;;14.60;;
30874;SDS011;17581;43.222;27.924;2022-12-18T16:08:36;41.92;;;17.52;;
30874;SDS011;17581;43.222;27.924;2022-12-18T16:11:02;44.28;;;19.70;;
30874;SDS011;17581;43.222;27.924;2022-12-18T16:13:27;28.45;;;14.82;;
30874;SDS011;17581;43.222;27.924;2022-12-18T16:15:53;26.90;;;14.85;;
30874;SDS011;17581;43.222;27.924;2022-12-18T16:18:18;33.10;;;16.23;;
30874;SDS011;17581;43.222;27.924;2022-12-18T16:20:44;31.85;;;16.40;;
30874;SDS011;17581;43.222;27.924;2022-12-18T16:23:10;32.20;;;15.88;;
30874;SDS011;17581;43.222;27.924;2022-12-18T16:25:35;29.73;;;15.60;;
30874;SDS011;17581;43.222;27.924;2022-12-18T16:28:00;28.02;;;15.70;;
30874;SDS011;17581;43.222;27.924;2022-12-18T16:30:28;28.90;;;15.65;;
30874;SDS011;17581;43.222;27.924;2022-12-18T16:32:55;25.33;;;15.80;;
30874;SDS011;17581;43.222;27.924;2022-12-18T16:35:22;36.15;;;16.25;;
30874;SDS011;17581;43.222;27.924;2022-12-18T16:37:48;38.25;;;18.45;;
30874;SDS011;17581;43.222;27.924;2022-12-18T16:40:14;39.60;;;18.42;;
30874;SDS011;17581;43.222;27.924;2022-12-18T16:42:42;35.22;;;18.17;;
30874;SDS011;17581;43.222;27.924;2022-12-18T16:45:10;28.17;;;16.52;;
30874;SDS011;17581;43.222;27.924;2022-12-18T16:47:37;35.00;;;18.77;;
30874;SDS011;17581;43.222;27.924;2022-12-18T16:50:03;41.65;;;19.20;;
30874;SDS011;17581;43.222;27.924;2022-12-18T16:52:30;28.67;;;17.15;;
30874;SDS011;17581;43.222;27.924;2022-12-18T16:54:55;36.28;;;18.77;;
30874;SDS011;17581;43.222;27.924;2022-12-18T16:57:21;35.78;;;17.45;;
30874;SDS011;17581;43.222;27.924;2022-12-18T16:59:47;27.08;;;15.60;;
30874;SDS011;17581;43.222;27.924;2022-12-18T17:02:15;30.40;;;14.23;;
30874;SDS011;17581;43.222;27.924;2022-12-18T17:04:42;21.95;;;12.68;;